createdAt,value
2018-09-29T00:02:23.093Z,7.30
2018-09-29T00:04:51.773Z,7.30
2018-09-29T00:07:20.425Z,7.40
2018-09-29T00:09:49.071Z,7.40
2018-09-29T00:12:17.731Z,7.30
2018-09-29T00:14:46.375Z,7.30
2018-09-29T00:17:15.042Z,7.30
2018-09-29T00:19:43.765Z,7.30
2018-09-29T00:22:12.414Z,7.40
2018-09-29T00:24:41.067Z,7.30
2018-09-29T00:27:09.733Z,7.30
2018-09-29T00:29:38.395Z,7.30
2018-09-29T00:32:07.034Z,7.20
2018-09-29T00:34:35.686Z,7.20
2018-09-29T00:37:04.346Z,7.20
2018-09-29T00:39:32.999Z,7.20
2018-09-29T00:42:01.658Z,7.10
2018-09-29T00:44:30.418Z,7.10
2018-09-29T00:46:59.070Z,7.10
2018-09-29T00:49:27.743Z,7.10
2018-09-29T00:51:56.381Z,7.10
2018-09-29T00:54:25.059Z,7.00
2018-09-29T00:56:53.714Z,7.00
2018-09-29T00:59:22.357Z,7.00
2018-09-29T01:01:51.034Z,7.00
2018-09-29T01:04:19.694Z,7.00
2018-09-29T01:06:48.349Z,6.90
2018-09-29T01:09:17.006Z,6.90
2018-09-29T01:11:45.698Z,6.80
2018-09-29T01:14:14.355Z,6.80
2018-09-29T01:16:43.018Z,6.90
2018-09-29T01:19:11.673Z,6.90
2018-09-29T01:21:40.343Z,6.90
2018-09-29T01:24:09.006Z,6.90
2018-09-29T01:26:37.739Z,6.90
2018-09-29T01:29:06.390Z,6.90
2018-09-29T01:31:35.215Z,6.80
2018-09-29T01:34:03.939Z,6.90
2018-09-29T01:36:32.561Z,6.80
2018-09-29T01:39:01.223Z,6.70
2018-09-29T01:41:29.881Z,6.70
2018-09-29T01:43:58.543Z,6.70
2018-09-29T01:46:27.194Z,6.70
2018-09-29T01:48:55.838Z,6.70
2018-09-29T01:51:24.485Z,6.70
2018-09-29T01:53:53.174Z,6.70
2018-09-29T01:56:21.825Z,6.70
2018-09-29T01:58:50.470Z,6.60
2018-09-29T02:01:19.121Z,6.60
2018-09-29T02:03:47.770Z,6.50
2018-09-29T02:06:16.426Z,6.50
2018-09-29T02:08:45.066Z,6.60
2018-09-29T02:11:13.713Z,6.50
2018-09-29T02:13:42.350Z,6.50
2018-09-29T02:16:11.006Z,6.40
2018-09-29T02:18:39.814Z,6.40
2018-09-29T02:21:08.471Z,6.30
2018-09-29T02:23:37.181Z,6.30
2018-09-29T02:26:06.023Z,6.30
2018-09-29T02:28:34.732Z,6.20
2018-09-29T02:31:03.343Z,6.20
2018-09-29T02:33:31.989Z,6.10
2018-09-29T02:36:00.711Z,6.10
2018-09-29T02:38:29.377Z,6.10
2018-09-29T02:40:58.054Z,6.00
2018-09-29T02:43:26.722Z,6.00
2018-09-29T02:45:55.365Z,6.00
2018-09-29T02:48:24.018Z,6.10
2018-09-29T02:50:52.666Z,6.10
2018-09-29T02:53:21.337Z,6.10
2018-09-29T02:55:49.998Z,6.10
2018-09-29T02:58:18.658Z,6.10
2018-09-29T03:00:47.308Z,6.10
2018-09-29T03:03:15.969Z,6.10
2018-09-29T03:05:44.662Z,6.10
2018-09-29T03:08:13.321Z,6.10
2018-09-29T03:10:41.976Z,6.00
2018-09-29T03:13:10.635Z,6.00
2018-09-29T03:15:39.285Z,5.90
2018-09-29T03:18:07.970Z,5.80
2018-09-29T03:20:36.617Z,5.90
2018-09-29T03:23:05.302Z,6.00
2018-09-29T03:25:33.918Z,6.00
2018-09-29T03:28:02.590Z,6.00
2018-09-29T03:30:31.374Z,6.00
2018-09-29T03:33:00.087Z,5.90
2018-09-29T03:35:28.742Z,5.90
2018-09-29T03:37:57.402Z,5.90
2018-09-29T03:40:26.050Z,5.90
2018-09-29T03:42:54.716Z,5.90
2018-09-29T03:45:23.482Z,5.80
2018-09-29T03:47:52.159Z,5.80
2018-09-29T03:50:20.818Z,5.80
2018-09-29T03:52:49.497Z,5.80
2018-09-29T03:55:18.140Z,5.80
2018-09-29T03:57:46.787Z,5.80
2018-09-29T04:00:15.435Z,5.80
2018-09-29T04:02:44.158Z,5.90
2018-09-29T04:05:12.835Z,5.80
2018-09-29T04:07:41.482Z,5.80
2018-09-29T04:10:10.133Z,5.70
2018-09-29T04:12:38.791Z,5.70
2018-09-29T04:15:07.805Z,5.60
2018-09-29T04:17:36.506Z,5.60
2018-09-29T04:20:05.160Z,5.60
2018-09-29T04:22:33.813Z,5.50
2018-09-29T04:25:02.492Z,5.40
2018-09-29T04:27:31.153Z,5.30
2018-09-29T04:29:59.801Z,5.20
2018-09-29T04:32:28.482Z,5.20
2018-09-29T04:34:57.137Z,5.10
2018-09-29T04:37:25.790Z,5.00
2018-09-29T04:39:54.430Z,5.00
2018-09-29T04:42:23.097Z,4.90
2018-09-29T04:44:51.750Z,4.90
2018-09-29T04:47:20.401Z,4.80
2018-09-29T04:49:49.053Z,4.80
2018-09-29T04:52:17.685Z,4.80
2018-09-29T04:54:46.347Z,4.80
2018-09-29T04:57:14.986Z,4.70
2018-09-29T04:59:43.642Z,4.70
2018-09-29T05:02:12.292Z,4.60
2018-09-29T05:04:40.942Z,4.60
2018-09-29T05:07:09.607Z,4.60
2018-09-29T05:09:38.257Z,4.60
2018-09-29T05:12:06.901Z,4.60
2018-09-29T05:14:35.554Z,4.60
2018-09-29T05:17:04.203Z,4.60
2018-09-29T05:19:32.929Z,4.70
2018-09-29T05:22:01.662Z,4.60
2018-09-29T05:24:30.325Z,4.70
2018-09-29T05:26:58.979Z,4.70
2018-09-29T05:29:27.622Z,4.80
2018-09-29T05:31:56.285Z,4.90
2018-09-29T05:34:25.034Z,5.20
2018-09-29T05:36:53.685Z,5.30
2018-09-29T05:39:22.819Z,5.50
2018-09-29T05:41:51.473Z,5.70
2018-09-29T05:44:20.215Z,5.90
2018-09-29T05:46:48.838Z,6.20
2018-09-29T05:49:17.489Z,6.40
2018-09-29T05:51:46.146Z,6.70
2018-09-29T05:54:14.791Z,6.90
2018-09-29T05:56:43.433Z,7.10
2018-09-29T05:59:12.097Z,7.40
2018-09-29T06:01:40.742Z,7.60
2018-09-29T06:04:09.390Z,7.80
2018-09-29T06:06:38.039Z,7.90
2018-09-29T06:09:07.772Z,8.10
2018-09-29T06:11:36.468Z,8.20
2018-09-29T06:14:05.114Z,8.30
2018-09-29T06:16:33.765Z,8.40
2018-09-29T06:19:02.578Z,8.50
2018-09-29T06:21:31.229Z,8.60
2018-09-29T06:23:59.901Z,8.80
2018-09-29T06:26:28.538Z,8.90
2018-09-29T06:28:57.170Z,9.10
2018-09-29T06:31:25.822Z,9.30
2018-09-29T06:33:54.479Z,9.70
2018-09-29T06:36:23.134Z,10.00
2018-09-29T06:38:51.781Z,10.40
2018-09-29T06:41:20.445Z,10.90
2018-09-29T06:43:49.101Z,11.30
2018-09-29T06:46:17.803Z,11.80
2018-09-29T06:48:46.453Z,12.30
2018-09-29T06:51:15.222Z,12.70
2018-09-29T06:53:43.841Z,13.10
2018-09-29T06:56:12.593Z,13.40
2018-09-29T06:58:41.266Z,13.70
2018-09-29T07:01:09.926Z,14.00
2018-09-29T07:03:38.578Z,14.20
2018-09-29T07:06:07.310Z,14.60
2018-09-29T07:08:38.999Z,14.90
2018-09-29T07:11:07.747Z,15.10
2018-09-29T07:13:36.430Z,15.10
2018-09-29T07:16:05.363Z,15.30
2018-09-29T07:18:34.006Z,15.40
2018-09-29T07:21:02.662Z,15.70
2018-09-29T07:23:31.374Z,16.00
2018-09-29T07:26:00.036Z,16.40
2018-09-29T07:28:28.742Z,16.70
2018-09-29T07:30:57.405Z,17.00
2018-09-29T07:33:26.094Z,17.10
2018-09-29T07:35:58.402Z,17.40
2018-09-29T07:38:27.098Z,17.30
2018-09-29T07:40:55.737Z,17.40
2018-09-29T07:43:24.438Z,17.60
2018-09-29T07:45:53.147Z,17.70
2018-09-29T07:48:21.798Z,17.90
2018-09-29T07:50:50.491Z,17.60
2018-09-29T07:53:19.209Z,16.80
2018-09-29T07:55:47.888Z,16.70
2018-09-29T07:58:16.578Z,17.10
2018-09-29T08:00:45.242Z,17.50
2018-09-29T08:03:13.953Z,16.90
2018-09-29T08:05:42.614Z,16.90
2018-09-29T08:08:11.265Z,16.90
2018-09-29T08:10:39.973Z,16.80
2018-09-29T08:13:08.690Z,16.60
2018-09-29T08:15:37.341Z,16.70
2018-09-29T08:18:06.111Z,17.00
2018-09-29T08:20:34.903Z,17.20
2018-09-29T08:23:03.552Z,17.60
2018-09-29T08:25:32.299Z,17.70
2018-09-29T08:28:01.213Z,17.10
2018-09-29T08:30:29.837Z,16.80
2018-09-29T08:32:58.493Z,16.70
2018-09-29T08:35:27.162Z,17.10
2018-09-29T08:37:55.875Z,17.50
2018-09-29T08:40:24.470Z,17.80
2018-09-29T08:42:53.117Z,18.30
2018-09-29T08:45:21.824Z,18.80
2018-09-29T08:47:50.546Z,19.10
2018-09-29T08:50:19.335Z,19.30
2018-09-29T08:52:47.986Z,19.10
2018-09-29T08:55:16.634Z,19.20
2018-09-29T08:57:45.294Z,19.10
2018-09-29T09:00:14.016Z,19.30
2018-09-29T09:02:42.848Z,19.60
2018-09-29T09:05:11.505Z,20.10
2018-09-29T09:07:40.190Z,20.40
2018-09-29T09:10:08.857Z,20.50
2018-09-29T09:12:37.585Z,20.40
2018-09-29T09:15:06.431Z,19.90
2018-09-29T09:17:35.048Z,19.90
2018-09-29T09:20:03.707Z,20.00
2018-09-29T09:22:32.382Z,19.90
2018-09-29T09:25:01.071Z,20.00
2018-09-29T09:27:29.731Z,20.10
2018-09-29T09:29:58.506Z,20.40
2018-09-29T09:32:27.083Z,20.50
2018-09-29T09:34:55.809Z,20.50
2018-09-29T09:37:24.444Z,19.60
2018-09-29T09:39:53.094Z,19.10
2018-09-29T09:42:21.785Z,19.20
2018-09-29T09:44:50.434Z,18.40
2018-09-29T09:47:19.132Z,18.10
2018-09-29T09:49:47.758Z,18.00
2018-09-29T09:52:16.429Z,18.00
2018-09-29T09:54:45.054Z,17.70
2018-09-29T09:57:13.719Z,17.20
2018-09-29T09:59:42.417Z,17.00
2018-09-29T10:03:17.399Z,17.20
2018-09-29T10:05:46.080Z,17.70
2018-09-29T10:08:14.733Z,18.60
2018-09-29T10:10:43.378Z,19.10
2018-09-29T10:13:12.034Z,19.30
2018-09-29T10:15:40.670Z,19.20
2018-09-29T10:18:09.373Z,19.30
2018-09-29T10:20:38.013Z,19.60
2018-09-29T10:23:07.010Z,19.30
2018-09-29T10:25:35.818Z,18.90
2018-09-29T10:28:04.838Z,18.80
2018-09-29T10:30:33.701Z,18.80
2018-09-29T10:33:02.402Z,18.80
2018-09-29T10:35:31.045Z,19.10
2018-09-29T10:37:59.965Z,19.30
2018-09-29T10:40:28.605Z,19.00
2018-09-29T10:42:57.380Z,18.30
2018-09-29T10:45:26.222Z,17.60
2018-09-29T10:47:54.886Z,16.40
2018-09-29T10:50:23.550Z,16.00
2018-09-29T10:52:52.280Z,16.00
2018-09-29T10:55:20.914Z,16.30
2018-09-29T10:57:49.546Z,16.50
2018-09-29T11:00:18.190Z,16.40
2018-09-29T11:02:46.894Z,16.40
2018-09-29T11:05:15.508Z,16.30
2018-09-29T11:07:44.158Z,16.20
2018-09-29T11:10:13.702Z,15.90
2018-09-29T11:12:42.358Z,15.30
2018-09-29T11:15:10.994Z,14.80
2018-09-29T11:17:39.689Z,14.60
2018-09-29T11:20:08.331Z,14.30
2018-09-29T11:22:36.991Z,14.30
2018-09-29T11:25:05.660Z,14.40
2018-09-29T11:27:34.327Z,14.50
2018-09-29T11:30:02.950Z,14.30
2018-09-29T11:32:32.441Z,14.20
2018-09-29T11:35:01.102Z,14.00
2018-09-29T11:37:29.750Z,13.70
2018-09-29T11:39:58.425Z,13.50
2018-09-29T11:42:27.090Z,13.50
2018-09-29T11:44:55.783Z,13.50
2018-09-29T11:47:24.394Z,13.60
2018-09-29T11:49:53.025Z,13.70
2018-09-29T11:52:21.690Z,13.90
2018-09-29T11:54:50.331Z,13.90
2018-09-29T11:57:19.217Z,13.80
2018-09-29T11:59:47.949Z,13.70
2018-09-29T12:02:16.583Z,13.70
2018-09-29T12:04:45.211Z,13.80
2018-09-29T12:07:13.921Z,14.00
2018-09-29T12:09:42.523Z,13.90
2018-09-29T12:12:11.271Z,13.80
2018-09-29T12:14:39.882Z,13.70
2018-09-29T12:17:08.533Z,13.60
2018-09-29T12:19:37.176Z,13.60
2018-09-29T12:22:05.829Z,13.50
2018-09-29T12:24:34.510Z,13.40
2018-09-29T12:27:03.174Z,13.40
2018-09-29T12:29:31.887Z,13.40
2018-09-29T12:32:00.510Z,13.50
2018-09-29T12:34:29.286Z,13.60
2018-09-29T12:36:58.572Z,13.70
2018-09-29T12:39:27.218Z,13.80
2018-09-29T12:41:55.889Z,13.80
2018-09-29T12:44:24.582Z,13.70
2018-09-29T12:46:53.192Z,13.80
2018-09-29T12:49:22.031Z,13.70
2018-09-29T12:51:50.822Z,13.60
2018-09-29T12:54:19.506Z,13.70
2018-09-29T12:56:48.170Z,13.60
2018-09-29T12:59:17.005Z,13.50
2018-09-29T13:01:45.693Z,13.40
2018-09-29T13:04:14.374Z,13.30
2018-09-29T13:06:43.061Z,13.40
2018-09-29T13:09:11.745Z,13.40
2018-09-29T13:11:40.431Z,13.40
2018-09-29T13:14:09.085Z,13.50
2018-09-29T13:16:37.904Z,13.50
2018-09-29T13:19:06.854Z,13.60
2018-09-29T13:21:35.511Z,13.70
2018-09-29T13:24:04.472Z,13.70
2018-09-29T13:26:33.143Z,13.60
2018-09-29T13:29:01.815Z,13.60
2018-09-29T13:31:30.630Z,13.60
2018-09-29T13:33:59.245Z,13.60
2018-09-29T13:36:27.902Z,13.60
2018-09-29T13:38:56.657Z,13.60
2018-09-29T13:41:25.368Z,13.70
2018-09-29T13:43:54.007Z,13.70
2018-09-29T13:46:22.645Z,13.60
2018-09-29T13:48:55.858Z,13.60
2018-09-29T13:51:24.763Z,13.60
2018-09-29T13:53:53.447Z,13.60
2018-09-29T13:56:22.140Z,13.60
2018-09-29T13:58:50.801Z,13.60
2018-09-29T14:01:19.450Z,13.60
2018-09-29T14:03:48.098Z,13.60
2018-09-29T14:06:16.741Z,13.60
2018-09-29T14:08:45.553Z,13.70
2018-09-29T14:11:14.162Z,13.70
2018-09-29T14:13:42.810Z,13.60
2018-09-29T14:16:11.483Z,13.60
2018-09-29T14:18:40.147Z,13.60
2018-09-29T14:21:08.837Z,13.60
2018-09-29T14:23:37.513Z,13.60
2018-09-29T14:26:06.208Z,13.60
2018-09-29T14:28:34.857Z,13.60
2018-09-29T14:31:03.527Z,13.60
2018-09-29T14:33:32.217Z,13.50
2018-09-29T14:36:01.046Z,13.60
2018-09-29T14:38:29.732Z,13.50
2018-09-29T14:40:58.385Z,13.50
2018-09-29T14:43:27.067Z,13.60
2018-09-29T14:45:55.702Z,13.50
2018-09-29T14:48:24.376Z,13.60
2018-09-29T14:50:53.279Z,13.60
2018-09-29T14:53:22.002Z,13.60
2018-09-29T14:55:50.693Z,13.50
2018-09-29T14:58:19.396Z,13.50
2018-09-29T15:00:48.069Z,13.50
2018-09-29T15:03:16.734Z,13.60
2018-09-29T15:05:45.395Z,13.60
2018-09-29T15:08:14.066Z,13.60
2018-09-29T15:10:42.741Z,13.60
2018-09-29T15:13:11.405Z,13.60
2018-09-29T15:15:40.051Z,13.50
2018-09-29T15:18:08.701Z,13.50
2018-09-29T15:20:37.455Z,13.50
2018-09-29T15:23:06.260Z,13.50
2018-09-29T15:25:34.905Z,13.50
2018-09-29T15:28:03.553Z,13.40
2018-09-29T15:30:32.209Z,13.40
2018-09-29T15:33:00.887Z,13.40
2018-09-29T15:35:29.522Z,13.40
2018-09-29T15:37:58.181Z,13.40
2018-09-29T15:40:26.824Z,13.30
2018-09-29T15:42:55.650Z,13.30
2018-09-29T15:45:24.116Z,13.30
2018-09-29T15:47:52.777Z,13.30
2018-09-29T15:50:21.467Z,13.30
2018-09-29T15:52:50.229Z,13.20
2018-09-29T15:55:18.900Z,13.20
2018-09-29T15:57:47.506Z,13.20
2018-09-29T16:00:16.157Z,13.10
2018-09-29T16:02:44.802Z,13.10
2018-09-29T16:05:13.462Z,13.10
2018-09-29T16:07:42.105Z,13.10
2018-09-29T16:10:10.754Z,13.00
2018-09-29T16:12:39.467Z,12.90
2018-09-29T16:15:08.102Z,12.90
2018-09-29T16:17:36.757Z,12.80
2018-09-29T16:20:05.472Z,12.70
2018-09-29T16:22:34.101Z,12.60
2018-09-29T16:25:02.749Z,12.50
2018-09-29T16:27:31.389Z,12.40
2018-09-29T16:30:00.049Z,12.30
2018-09-29T16:32:28.714Z,12.20
2018-09-29T16:34:57.400Z,12.10
2018-09-29T16:37:26.065Z,12.00
2018-09-29T16:39:54.720Z,11.90
2018-09-29T16:42:23.399Z,11.80
2018-09-29T16:44:52.067Z,11.70
2018-09-29T16:47:20.710Z,11.60
2018-09-29T16:49:49.365Z,11.50
2018-09-29T16:52:18.032Z,11.40
2018-09-29T16:54:46.739Z,11.30
2018-09-29T16:57:15.393Z,11.20
2018-09-29T16:59:44.044Z,11.10
2018-09-29T17:02:12.731Z,11.10
2018-09-29T17:04:41.785Z,10.90
2018-09-29T17:07:10.307Z,10.90
2018-09-29T17:09:38.982Z,10.70
2018-09-29T17:12:07.894Z,10.70
2018-09-29T17:14:36.630Z,10.60
2018-09-29T17:17:05.451Z,10.50
2018-09-29T17:19:34.142Z,10.40
2018-09-29T17:22:02.795Z,10.40
2018-09-29T17:24:31.472Z,10.30
2018-09-29T17:27:00.150Z,10.20
2018-09-29T17:29:28.815Z,10.10
2018-09-29T17:31:57.603Z,10.10
2018-09-29T17:34:26.158Z,10.00
2018-09-29T17:36:54.811Z,9.90
2018-09-29T17:39:23.494Z,9.80
2018-09-29T17:41:52.154Z,9.80
2018-09-29T17:44:20.839Z,9.70
2018-09-29T17:46:49.526Z,9.70
2018-09-29T17:49:18.173Z,9.60
2018-09-29T17:51:46.895Z,9.60
2018-09-29T17:54:15.553Z,9.50
2018-09-29T17:56:44.210Z,9.40
2018-09-29T17:59:12.902Z,9.40
2018-09-29T18:01:41.574Z,9.50
2018-09-29T18:04:10.309Z,9.40
2018-09-29T18:06:38.893Z,9.30
2018-09-29T18:09:08.677Z,9.20
2018-09-29T18:11:37.336Z,9.10
2018-09-29T18:14:06.299Z,9.00
2018-09-29T18:16:34.957Z,9.00
2018-09-29T18:19:03.629Z,8.90
2018-09-29T18:21:32.384Z,8.90
2018-09-29T18:24:00.999Z,8.90
2018-09-29T18:26:29.660Z,8.90
2018-09-29T18:28:58.294Z,8.90
2018-09-29T18:31:26.959Z,9.00
2018-09-29T18:33:55.605Z,9.20
2018-09-29T18:36:24.268Z,9.30
2018-09-29T18:38:52.924Z,9.40
2018-09-29T18:41:21.627Z,9.50
2018-09-29T18:43:50.289Z,9.50
2018-09-29T18:46:18.949Z,9.50
2018-09-29T18:48:47.651Z,9.70
2018-09-29T18:51:16.289Z,9.70
2018-09-29T18:53:45.326Z,9.80
2018-09-29T18:56:13.988Z,9.70
2018-09-29T18:58:42.633Z,9.70
2018-09-29T19:01:11.285Z,9.70
2018-09-29T19:03:39.936Z,9.60
2018-09-29T19:06:08.588Z,9.60
2018-09-29T19:08:37.237Z,9.50
2018-09-29T19:11:06.052Z,9.50
2018-09-29T19:13:34.704Z,9.50
2018-09-29T19:16:03.528Z,9.40
2018-09-29T19:18:32.138Z,9.40
2018-09-29T19:21:00.841Z,9.40
2018-09-29T19:23:29.546Z,9.40
2018-09-29T19:25:58.207Z,9.50
2018-09-29T19:28:26.870Z,9.60
2018-09-29T19:30:55.513Z,9.70
2018-09-29T19:33:24.235Z,9.60
2018-09-29T19:35:52.976Z,9.60
2018-09-29T19:38:21.618Z,9.70
2018-09-29T19:40:50.346Z,9.70
2018-09-29T19:43:18.998Z,9.70
2018-09-29T19:45:47.828Z,9.70
2018-09-29T19:48:16.403Z,9.70
2018-09-29T19:50:45.056Z,9.80
2018-09-29T19:53:13.722Z,9.80
2018-09-29T19:55:42.386Z,9.80
2018-09-29T19:58:11.033Z,9.80
2018-09-29T20:00:39.706Z,9.90
2018-09-29T20:03:08.362Z,9.90
2018-09-29T20:05:37.385Z,9.90
2018-09-29T20:08:06.121Z,9.90
2018-09-29T20:10:34.865Z,9.90
2018-09-29T20:13:03.521Z,9.90
2018-09-29T20:15:32.176Z,9.90
2018-09-29T20:18:00.859Z,9.90
2018-09-29T20:20:29.513Z,10.00
2018-09-29T20:22:58.168Z,9.90
2018-09-29T20:25:26.829Z,9.90
2018-09-29T20:27:55.492Z,9.90
2018-09-29T20:30:24.387Z,9.80
2018-09-29T20:32:53.013Z,9.80
2018-09-29T20:35:21.681Z,9.80
2018-09-29T20:37:50.383Z,9.80
2018-09-29T20:40:19.036Z,9.70
2018-09-29T20:42:47.702Z,9.60
2018-09-29T20:45:16.421Z,9.60
2018-09-29T20:47:45.138Z,9.60
2018-09-29T20:50:13.914Z,9.60
2018-09-29T20:52:42.565Z,9.50
2018-09-29T20:55:11.212Z,9.50
2018-09-29T20:57:39.860Z,9.50
2018-09-29T21:00:08.518Z,9.50
2018-09-29T21:02:37.148Z,9.40
2018-09-29T21:05:05.791Z,9.40
2018-09-29T21:07:34.435Z,9.30
2018-09-29T21:10:03.090Z,9.30
2018-09-29T21:12:31.735Z,9.30
2018-09-29T21:15:00.465Z,9.30
2018-09-29T21:17:29.200Z,9.30
2018-09-29T21:19:57.809Z,9.30
2018-09-29T21:22:26.629Z,9.30
2018-09-29T21:24:55.269Z,9.40
2018-09-29T21:27:24.014Z,9.40
2018-09-29T21:29:52.654Z,9.40
2018-09-29T21:32:21.342Z,9.40
2018-09-29T21:34:49.969Z,9.40
2018-09-29T21:37:18.709Z,9.30
2018-09-29T21:39:47.354Z,9.30
2018-09-29T21:42:16.043Z,9.30
2018-09-29T21:44:44.736Z,9.20
2018-09-29T21:47:13.379Z,9.10
2018-09-29T21:49:42.046Z,9.10
2018-09-29T21:52:10.706Z,9.10
2018-09-29T21:54:39.359Z,9.00
2018-09-29T21:57:08.029Z,9.00
2018-09-29T21:59:36.684Z,9.00
2018-09-29T22:02:05.337Z,9.00
2018-09-29T22:04:34.012Z,9.00
2018-09-29T22:07:02.694Z,9.00
2018-09-29T22:09:31.329Z,9.00
2018-09-29T22:11:59.987Z,8.90
2018-09-29T22:14:28.653Z,8.90
2018-09-29T22:16:57.310Z,8.80
2018-09-29T22:19:25.961Z,8.70
2018-09-29T22:21:54.618Z,8.70
2018-09-29T22:24:23.269Z,8.60
2018-09-29T22:26:51.927Z,8.60
2018-09-29T22:29:20.577Z,8.60
2018-09-29T22:31:49.292Z,8.60
2018-09-29T22:34:17.881Z,8.60
2018-09-29T22:36:46.549Z,8.60
2018-09-29T22:39:15.207Z,8.60
2018-09-29T22:41:43.865Z,8.50
2018-09-29T22:44:12.522Z,8.50
2018-09-29T22:46:41.200Z,8.40
2018-09-29T22:49:09.875Z,8.40
2018-09-29T22:51:38.673Z,8.30
2018-09-29T22:54:07.354Z,8.20
2018-09-29T22:56:36.000Z,8.20
2018-09-29T22:59:04.645Z,8.20
2018-09-29T23:01:33.300Z,8.20
2018-09-29T23:04:01.984Z,8.30
2018-09-29T23:06:30.663Z,8.30
2018-09-29T23:08:59.311Z,8.30
2018-09-29T23:11:27.954Z,8.30
2018-09-29T23:13:56.623Z,8.20
2018-09-29T23:16:25.272Z,8.30
2018-09-29T23:18:53.937Z,8.40
2018-09-29T23:21:22.590Z,8.40
2018-09-29T23:23:51.263Z,8.40
2018-09-29T23:26:19.914Z,8.30
2018-09-29T23:28:48.577Z,8.30
2018-09-29T23:31:17.231Z,8.40
2018-09-29T23:33:45.958Z,8.40
2018-09-29T23:36:14.591Z,8.60
2018-09-29T23:38:43.285Z,8.70
2018-09-29T23:41:11.948Z,8.80
2018-09-29T23:43:40.586Z,8.80
2018-09-29T23:46:09.469Z,8.80
2018-09-29T23:48:38.126Z,8.70
2018-09-29T23:51:06.954Z,8.80
2018-09-29T23:53:35.610Z,8.80
2018-09-29T23:56:04.278Z,8.80
2018-09-29T23:58:32.935Z,8.80
